createdAt,value
2018-10-11T00:02:22.480Z,18.30
2018-10-11T00:04:51.979Z,18.30
2018-10-11T00:07:25.132Z,18.30
2018-10-11T00:09:54.521Z,18.30
2018-10-11T00:12:27.194Z,18.30
2018-10-11T00:14:56.750Z,18.30
2018-10-11T00:17:29.313Z,18.40
2018-10-11T00:19:58.583Z,18.40
2018-10-11T00:22:31.722Z,18.30
2018-10-11T00:25:01.368Z,18.30
2018-10-11T00:27:34.595Z,18.40
2018-10-11T00:30:04.478Z,18.30
2018-10-11T00:32:36.805Z,18.30
2018-10-11T00:35:06.200Z,18.30
2018-10-11T00:37:38.763Z,18.30
2018-10-11T00:40:09.111Z,18.40
2018-10-11T00:42:42.270Z,18.30
2018-10-11T00:45:11.752Z,18.30
2018-10-11T00:47:48.362Z,18.30
2018-10-11T00:50:17.582Z,18.30
2018-10-11T00:52:47.142Z,18.30
2018-10-11T00:55:16.386Z,18.20
2018-10-11T00:57:50.612Z,18.20
2018-10-11T01:00:20.277Z,18.20
2018-10-11T01:02:53.897Z,18.20
2018-10-11T01:05:23.122Z,18.20
2018-10-11T01:07:55.140Z,18.10
2018-10-11T01:10:24.399Z,18.10
2018-10-11T01:13:01.088Z,18.10
2018-10-11T01:15:30.504Z,18.00
2018-10-11T01:18:01.704Z,18.00
2018-10-11T01:20:30.946Z,18.00
2018-10-11T01:23:03.668Z,17.90
2018-10-11T01:25:33.233Z,17.90
2018-10-11T01:28:09.754Z,17.80
2018-10-11T01:30:43.335Z,17.80
2018-10-11T01:33:12.719Z,17.80
2018-10-11T01:35:42.734Z,17.70
2018-10-11T01:38:15.536Z,17.70
2018-10-11T01:40:44.767Z,17.60
2018-10-11T01:43:17.588Z,17.60
2018-10-11T01:45:47.583Z,17.60
2018-10-11T01:48:19.336Z,17.50
2018-10-11T01:50:48.554Z,17.40
2018-10-11T01:53:21.245Z,17.40
2018-10-11T01:55:50.438Z,17.30
2018-10-11T01:58:23.477Z,17.10
2018-10-11T02:00:52.938Z,17.10
2018-10-11T02:03:26.190Z,17.00
2018-10-11T02:05:55.842Z,17.00
2018-10-11T02:08:28.671Z,16.90
2018-10-11T02:10:59.489Z,16.80
2018-10-11T02:13:32.591Z,16.80
2018-10-11T02:16:02.202Z,16.80
2018-10-11T02:18:34.774Z,16.80
2018-10-11T02:21:03.965Z,16.80
2018-10-11T02:23:41.187Z,16.70
2018-10-11T02:26:10.436Z,16.70
2018-10-11T02:28:40.119Z,16.70
2018-10-11T02:31:09.588Z,16.70
2018-10-11T02:33:42.471Z,16.70
2018-10-11T02:36:12.056Z,16.70
2018-10-11T02:38:45.551Z,16.70
2018-10-11T02:41:14.753Z,16.60
2018-10-11T02:43:48.254Z,16.60
2018-10-11T02:46:17.678Z,16.60
2018-10-11T02:48:50.541Z,16.50
2018-10-11T02:51:19.704Z,16.50
2018-10-11T02:53:57.449Z,16.50
2018-10-11T02:56:26.950Z,16.50
2018-10-11T02:59:07.470Z,16.50
2018-10-11T03:01:37.111Z,16.50
2018-10-11T03:04:06.815Z,16.40
2018-10-11T03:06:37.977Z,16.50
2018-10-11T03:09:09.245Z,16.50
2018-10-11T03:11:39.072Z,16.40
2018-10-11T03:14:08.313Z,16.40
2018-10-11T03:16:37.805Z,16.30
2018-10-11T03:19:08.198Z,16.30
2018-10-11T03:21:37.698Z,16.30
2018-10-11T03:24:12.779Z,16.30
2018-10-11T03:26:42.037Z,16.30
2018-10-11T03:29:15.140Z,16.20
2018-10-11T03:31:44.681Z,16.20
2018-10-11T03:34:17.405Z,16.20
2018-10-11T03:36:46.662Z,16.20
2018-10-11T03:39:19.156Z,16.20
2018-10-11T03:41:48.330Z,16.20
2018-10-11T03:44:25.197Z,16.20
2018-10-11T03:46:54.615Z,16.10
2018-10-11T03:49:25.496Z,16.10
2018-10-11T03:51:54.647Z,16.10
2018-10-11T03:54:26.712Z,16.00
2018-10-11T03:56:56.056Z,16.00
2018-10-11T03:59:29.723Z,16.00
2018-10-11T04:01:59.567Z,16.00
2018-10-11T04:04:32.288Z,16.10
2018-10-11T04:07:03.336Z,16.10
2018-10-11T04:09:33.775Z,16.10
2018-10-11T04:12:03.278Z,16.10
2018-10-11T04:14:39.502Z,16.10
2018-10-11T04:17:08.742Z,16.10
2018-10-11T04:19:41.770Z,16.10
2018-10-11T04:22:11.436Z,16.20
2018-10-11T04:24:42.165Z,16.10
2018-10-11T04:27:11.693Z,16.10
2018-10-11T04:29:44.960Z,16.20
2018-10-11T04:32:14.198Z,16.20
2018-10-11T04:34:50.765Z,16.20
2018-10-11T04:37:19.950Z,16.20
2018-10-11T04:39:50.306Z,16.20
2018-10-11T04:42:19.775Z,16.20
2018-10-11T04:44:55.951Z,16.10
2018-10-11T04:47:25.217Z,16.20
2018-10-11T04:49:55.569Z,16.10
2018-10-11T04:52:24.784Z,16.10
2018-10-11T04:54:59.056Z,16.20
2018-10-11T04:57:28.294Z,16.20
2018-10-11T05:00:01.196Z,16.20
2018-10-11T05:02:30.767Z,16.20
2018-10-11T05:05:04.131Z,16.20
2018-10-11T05:07:33.513Z,16.20
2018-10-11T05:10:10.521Z,16.20
2018-10-11T05:12:40.081Z,16.30
2018-10-11T05:15:12.780Z,16.30
2018-10-11T05:17:43.285Z,16.30
2018-10-11T05:20:14.370Z,16.30
2018-10-11T05:22:43.641Z,16.30
2018-10-11T05:25:16.724Z,16.30
2018-10-11T05:27:46.717Z,16.40
2018-10-11T05:30:19.772Z,16.30
2018-10-11T05:32:49.249Z,16.40
2018-10-11T05:35:21.979Z,16.50
2018-10-11T05:37:51.255Z,16.60
2018-10-11T05:40:23.659Z,16.80
2018-10-11T05:42:53.275Z,17.00
2018-10-11T05:45:26.829Z,17.10
2018-10-11T05:47:56.902Z,17.10
2018-10-11T05:50:29.014Z,17.10
2018-10-11T05:52:58.717Z,17.10
2018-10-11T05:55:31.797Z,17.10
2018-10-11T05:58:01.574Z,17.10
2018-10-11T06:00:34.266Z,17.10
2018-10-11T06:03:04.277Z,17.10
2018-10-11T06:05:38.369Z,17.20
2018-10-11T06:08:08.097Z,17.20
2018-10-11T06:10:41.561Z,17.20
2018-10-11T06:13:11.717Z,17.30
2018-10-11T06:15:43.820Z,17.30
2018-10-11T06:18:13.482Z,17.50
2018-10-11T06:20:46.219Z,17.50
2018-10-11T06:23:15.450Z,17.60
2018-10-11T06:25:48.969Z,17.60
2018-10-11T06:28:18.622Z,17.70
2018-10-11T06:30:51.769Z,17.70
2018-10-11T06:33:21.153Z,17.70
2018-10-11T06:35:54.650Z,17.70
2018-10-11T06:38:24.106Z,17.60
2018-10-11T06:40:56.600Z,17.60
2018-10-11T06:43:26.568Z,17.70
2018-10-11T06:46:03.386Z,17.60
2018-10-11T06:48:32.890Z,17.60
2018-10-11T06:51:03.593Z,17.60
2018-10-11T06:53:32.916Z,17.70
2018-10-11T06:56:06.189Z,17.70
2018-10-11T06:58:35.475Z,17.80
2018-10-11T07:01:12.218Z,17.80
2018-10-11T07:03:41.703Z,17.90
2018-10-11T07:06:14.441Z,17.90
2018-10-11T07:08:43.720Z,18.10
2018-10-11T07:11:15.131Z,18.10
2018-10-11T07:13:44.641Z,18.20
2018-10-11T07:16:17.276Z,18.20
2018-10-11T07:18:46.474Z,18.30
2018-10-11T07:21:20.053Z,18.30
2018-10-11T07:23:49.340Z,18.40
2018-10-11T07:26:26.039Z,18.40
2018-10-11T07:28:55.265Z,18.40
2018-10-11T07:31:24.884Z,18.50
2018-10-11T07:33:54.135Z,18.50
2018-10-11T07:36:30.440Z,18.50
2018-10-11T07:39:00.432Z,18.50
2018-10-11T07:41:30.051Z,18.50
2018-10-11T07:43:59.267Z,18.60
2018-10-11T07:46:32.257Z,18.60
2018-10-11T07:49:02.723Z,18.60
2018-10-11T07:51:35.461Z,18.70
2018-10-11T07:54:05.088Z,18.70
2018-10-11T07:56:37.795Z,18.80
2018-10-11T07:59:07.332Z,18.80
2018-10-11T08:01:40.215Z,18.80
2018-10-11T08:04:09.487Z,18.80
2018-10-11T08:06:43.312Z,18.80
2018-10-11T08:09:12.836Z,18.90
2018-10-11T08:11:44.131Z,18.90
2018-10-11T08:14:13.435Z,18.90
2018-10-11T08:16:53.219Z,18.90
2018-10-11T08:19:27.646Z,18.90
2018-10-11T08:21:57.687Z,19.00
2018-10-11T08:24:27.085Z,19.00
2018-10-11T08:26:56.372Z,19.00
2018-10-11T08:29:26.041Z,19.10
2018-10-11T08:31:56.851Z,19.10
2018-10-11T08:34:27.157Z,19.10
2018-10-11T08:36:59.427Z,19.20
2018-10-11T08:39:28.762Z,19.20
2018-10-11T08:42:02.257Z,19.20
2018-10-11T08:44:31.527Z,19.30
2018-10-11T08:47:08.212Z,19.40
2018-10-11T08:49:37.544Z,19.40
2018-10-11T08:52:08.449Z,19.50
2018-10-11T08:54:43.089Z,19.50
2018-10-11T08:57:12.450Z,19.60
2018-10-11T08:59:42.572Z,19.70
2018-10-11T09:02:13.710Z,19.80
2018-10-11T09:04:43.541Z,19.70
2018-10-11T09:07:16.686Z,19.80
2018-10-11T09:09:53.437Z,19.90
2018-10-11T09:12:18.036Z,19.90
2018-10-11T09:14:47.842Z,20.00
2018-10-11T09:17:20.594Z,20.00
2018-10-11T09:19:49.902Z,20.10
2018-10-11T09:22:23.269Z,20.20
2018-10-11T09:24:52.576Z,20.20
2018-10-11T09:27:25.682Z,20.10
2018-10-11T09:29:55.209Z,20.10
2018-10-11T09:32:32.105Z,20.10
2018-10-11T09:35:01.604Z,20.00
2018-10-11T09:37:31.169Z,19.90
2018-10-11T09:40:00.488Z,19.90
2018-10-11T09:42:34.061Z,19.90
2018-10-11T09:45:03.373Z,19.90
2018-10-11T09:47:36.187Z,19.80
2018-10-11T09:50:05.651Z,19.80
2018-10-11T09:52:39.568Z,19.80
2018-10-11T09:55:10.543Z,19.90
2018-10-11T09:57:40.567Z,20.00
2018-10-11T10:00:16.941Z,20.00
2018-10-11T10:02:47.714Z,20.10
2018-10-11T10:05:17.103Z,20.10
2018-10-11T10:07:46.468Z,20.10
2018-10-11T10:10:16.052Z,20.20
2018-10-11T10:12:48.696Z,20.20
2018-10-11T10:15:18.114Z,20.30
2018-10-11T10:17:51.683Z,20.40
2018-10-11T10:20:20.975Z,20.40
2018-10-11T10:22:57.592Z,20.50
2018-10-11T10:28:23.294Z,20.50
2018-10-11T10:31:00.886Z,20.50
2018-10-11T10:33:30.801Z,20.50
2018-10-11T10:36:02.806Z,20.60
2018-10-11T10:38:32.277Z,20.60
2018-10-11T10:41:05.022Z,20.50
2018-10-11T10:43:36.064Z,20.60
2018-10-11T10:46:08.710Z,20.60
2018-10-11T10:48:38.110Z,20.70
2018-10-11T10:51:15.525Z,20.80
2018-10-11T10:53:45.244Z,20.80
2018-10-11T10:56:14.822Z,20.80
2018-10-11T10:58:44.292Z,20.90
2018-10-11T11:01:17.341Z,21.00
2018-10-11T11:03:46.875Z,21.00
2018-10-11T11:06:20.104Z,21.10
2018-10-11T11:08:49.889Z,21.10
2018-10-11T11:11:22.987Z,21.30
2018-10-11T11:13:52.707Z,21.40
2018-10-11T11:16:24.405Z,21.60
2018-10-11T11:18:54.725Z,21.60
2018-10-11T11:21:26.104Z,21.70
2018-10-11T11:23:55.735Z,21.80
2018-10-11T11:26:32.350Z,21.90
2018-10-11T11:29:01.920Z,22.00
2018-10-11T11:31:31.802Z,22.00
2018-10-11T11:34:01.722Z,22.10
2018-10-11T11:36:35.956Z,22.00
2018-10-11T11:39:07.286Z,22.10
2018-10-11T11:41:37.053Z,22.10
2018-10-11T11:44:06.410Z,22.30
2018-10-11T11:46:39.046Z,22.40
2018-10-11T11:49:08.882Z,22.50
2018-10-11T11:51:41.526Z,22.50
2018-10-11T11:54:16.498Z,22.40
2018-10-11T11:56:46.120Z,22.60
2018-10-11T11:59:15.482Z,22.80
2018-10-11T12:01:48.226Z,23.10
2018-10-11T12:04:17.822Z,23.30
2018-10-11T12:06:50.800Z,23.40
2018-10-11T12:09:20.149Z,23.40
2018-10-11T12:11:53.893Z,23.50
2018-10-11T12:14:23.195Z,23.40
2018-10-11T12:16:56.081Z,23.40
2018-10-11T12:19:28.637Z,23.30
2018-10-11T12:22:01.842Z,23.20
2018-10-11T12:24:31.268Z,23.10
2018-10-11T12:27:00.906Z,23.20
2018-10-11T12:29:30.206Z,23.30
2018-10-11T12:32:07.025Z,23.30
2018-10-11T12:34:37.530Z,23.30
2018-10-11T12:37:06.934Z,23.40
2018-10-11T12:39:36.227Z,23.40
2018-10-11T12:42:13.045Z,23.30
2018-10-11T12:44:43.060Z,23.40
2018-10-11T12:47:15.806Z,23.40
2018-10-11T12:49:48.468Z,23.40
2018-10-11T12:52:15.532Z,23.60
2018-10-11T12:54:44.914Z,23.60
2018-10-11T12:57:20.368Z,23.60
2018-10-11T12:59:47.186Z,23.60
2018-10-11T13:02:20.372Z,23.60
2018-10-11T13:04:50.419Z,23.50
2018-10-11T13:07:22.946Z,23.60
2018-10-11T13:09:53.426Z,23.70
2018-10-11T13:12:25.189Z,23.90
2018-10-11T13:14:54.614Z,24.00
2018-10-11T13:17:37.007Z,24.10
2018-10-11T13:20:01.529Z,24.20
2018-10-11T13:22:30.938Z,24.20
2018-10-11T13:25:00.216Z,24.30
2018-10-11T13:27:32.914Z,24.10
2018-10-11T13:30:02.194Z,24.20
2018-10-11T13:32:35.412Z,24.10
2018-10-11T13:35:05.334Z,24.00
2018-10-11T13:37:37.951Z,23.90
2018-10-11T13:40:07.277Z,23.80
2018-10-11T13:42:40.483Z,23.70
2018-10-11T13:45:09.885Z,23.60
2018-10-11T13:47:45.457Z,23.60
2018-10-11T13:50:12.570Z,23.60
2018-10-11T13:52:49.376Z,23.60
2018-10-11T13:55:18.863Z,23.50
2018-10-11T13:57:48.216Z,23.40
2018-10-11T14:00:17.700Z,23.40
2018-10-11T14:02:53.782Z,23.30
2018-10-11T14:05:23.391Z,23.20
2018-10-11T14:07:54.799Z,23.10
2018-10-11T14:10:24.451Z,23.00
2018-10-11T14:12:56.871Z,23.00
2018-10-11T14:15:26.203Z,23.00
2018-10-11T14:18:03.255Z,23.10
2018-10-11T14:20:29.278Z,23.20
2018-10-11T14:23:06.881Z,23.30
2018-10-11T14:25:36.222Z,23.40
2018-10-11T14:28:05.577Z,23.50
2018-10-11T14:30:35.216Z,23.60
2018-10-11T14:33:11.806Z,23.60
2018-10-11T14:35:41.348Z,23.60
2018-10-11T14:38:13.917Z,23.70
2018-10-11T14:40:43.611Z,23.50
2018-10-11T14:43:15.072Z,23.50
2018-10-11T14:45:44.785Z,23.50
2018-10-11T14:48:19.128Z,23.50
2018-10-11T14:50:53.272Z,23.40
2018-10-11T14:53:26.476Z,23.40
2018-10-11T14:55:57.114Z,23.50
2018-10-11T14:58:27.310Z,23.50
2018-10-11T15:00:57.015Z,23.50
2018-10-11T15:03:26.775Z,23.40
2018-10-11T15:05:56.478Z,23.40
2018-10-11T15:08:27.463Z,23.40
2018-10-11T15:10:57.224Z,23.30
2018-10-11T15:13:30.161Z,23.30
2018-10-11T15:15:59.811Z,23.30
2018-10-11T15:18:36.955Z,23.30
2018-10-11T15:21:06.639Z,23.30
2018-10-11T15:23:36.163Z,23.20
2018-10-11T15:26:05.961Z,23.20
2018-10-11T15:28:36.438Z,23.20
2018-10-11T15:31:06.033Z,23.10
2018-10-11T15:33:38.648Z,23.10
2018-10-11T15:36:08.251Z,23.00
2018-10-11T15:38:41.236Z,23.00
2018-10-11T15:41:11.331Z,22.90
2018-10-11T15:43:44.067Z,22.90
2018-10-11T15:46:13.553Z,22.80
2018-10-11T15:48:51.775Z,22.70
2018-10-11T15:51:21.246Z,22.70
2018-10-11T15:53:50.743Z,22.70
2018-10-11T15:56:20.874Z,22.70
2018-10-11T15:58:54.570Z,22.60
2018-10-11T16:01:24.111Z,22.60
2018-10-11T16:03:56.114Z,22.60
2018-10-11T16:06:25.553Z,22.50
2018-10-11T16:08:59.318Z,22.50
2018-10-11T16:11:29.102Z,22.40
2018-10-11T16:14:01.575Z,22.40
2018-10-11T16:16:31.032Z,22.40
2018-10-11T16:19:08.306Z,22.40
2018-10-11T16:21:37.657Z,22.30
2018-10-11T16:24:08.480Z,22.20
2018-10-11T16:26:38.186Z,22.10
2018-10-11T16:29:15.026Z,22.10
2018-10-11T16:31:44.666Z,22.00
2018-10-11T16:34:14.450Z,22.00
2018-10-11T16:36:43.731Z,22.00
2018-10-11T16:39:17.590Z,21.90
2018-10-11T16:41:46.961Z,21.90
2018-10-11T16:44:20.165Z,21.80
2018-10-11T16:46:49.822Z,21.80
2018-10-11T16:49:22.709Z,21.70
2018-10-11T16:51:52.008Z,21.80
2018-10-11T16:54:25.967Z,21.70
2018-10-11T16:56:56.307Z,21.70
2018-10-11T16:59:26.667Z,21.60
2018-10-11T17:01:58.333Z,21.50
2018-10-11T17:04:28.794Z,21.50
2018-10-11T17:06:58.146Z,21.50
2018-10-11T17:09:31.509Z,21.40
2018-10-11T17:12:00.933Z,21.40
2018-10-11T17:14:33.554Z,21.40
2018-10-11T17:17:03.411Z,21.30
2018-10-11T17:19:35.691Z,21.30
2018-10-11T17:23:07.562Z,21.20
2018-10-11T17:25:40.089Z,21.20
2018-10-11T17:28:11.221Z,21.10
2018-10-11T17:30:41.081Z,21.10
2018-10-11T17:33:10.395Z,21.00
2018-10-11T17:35:47.495Z,21.00
2018-10-11T17:38:17.115Z,20.80
2018-10-11T17:40:46.502Z,20.80
2018-10-11T17:43:16.226Z,20.70
2018-10-11T17:45:49.092Z,20.70
2018-10-11T17:48:18.547Z,20.70
2018-10-11T17:50:52.342Z,20.70
2018-10-11T17:53:22.132Z,20.60
2018-10-11T17:55:55.436Z,20.60
2018-10-11T17:58:26.094Z,20.60
2018-10-11T18:00:57.377Z,20.60
2018-10-11T18:03:26.964Z,20.50
2018-10-11T18:06:01.518Z,20.50
2018-10-11T18:08:30.889Z,20.40
2018-10-11T18:11:04.757Z,20.40
2018-10-11T18:13:35.037Z,20.40
2018-10-11T18:16:07.951Z,20.30
2018-10-11T18:18:37.819Z,20.20
2018-10-11T18:21:09.974Z,20.10
2018-10-11T18:23:39.855Z,20.10
2018-10-11T18:26:16.464Z,20.00
2018-10-11T18:28:46.178Z,20.00
2018-10-11T18:31:15.658Z,19.90
2018-10-11T18:33:45.146Z,19.90
2018-10-11T18:36:18.524Z,19.80
2018-10-11T18:38:48.822Z,19.70
2018-10-11T18:41:20.230Z,19.70
2018-10-11T18:43:49.930Z,19.60
2018-10-11T18:46:23.240Z,19.60
2018-10-11T18:48:53.162Z,19.60
2018-10-11T18:51:26.096Z,19.60
2018-10-11T18:53:57.734Z,19.60
2018-10-11T18:56:35.190Z,19.60
2018-10-11T18:59:06.648Z,19.60
2018-10-11T19:01:36.384Z,19.60
2018-10-11T19:04:05.993Z,19.60
2018-10-11T19:06:35.884Z,19.70
2018-10-11T19:09:06.870Z,19.70
2018-10-11T19:11:37.469Z,19.70
2018-10-11T19:14:08.236Z,19.70
2018-10-11T19:16:37.765Z,19.70
2018-10-11T19:19:07.290Z,19.80
2018-10-11T19:21:40.519Z,19.80
2018-10-11T19:24:10.032Z,19.90
2018-10-11T19:26:42.612Z,19.80
2018-10-11T19:29:12.311Z,19.80
2018-10-11T19:31:45.452Z,19.80
2018-10-11T19:34:15.108Z,19.90
2018-10-11T19:36:47.100Z,19.90
2018-10-11T19:39:16.485Z,20.00
2018-10-11T19:41:49.258Z,19.90
2018-10-11T19:44:18.981Z,20.00
2018-10-11T19:46:52.448Z,20.00
2018-10-11T19:49:23.069Z,20.00
2018-10-11T19:51:55.137Z,20.00
2018-10-11T19:54:25.860Z,20.00
2018-10-11T19:56:58.617Z,20.00
2018-10-11T19:59:28.676Z,19.90
2018-10-11T20:01:59.916Z,19.90
2018-10-11T20:04:29.307Z,20.00
2018-10-11T20:07:06.458Z,20.00
2018-10-11T20:09:35.986Z,20.00
2018-10-11T20:12:05.488Z,20.00
2018-10-11T20:14:35.018Z,19.90
2018-10-11T20:17:12.614Z,19.90
2018-10-11T20:19:42.703Z,19.90
2018-10-11T20:22:14.568Z,19.80
2018-10-11T20:24:44.282Z,19.80
2018-10-11T20:27:17.122Z,19.70
2018-10-11T20:29:46.536Z,19.70
2018-10-11T20:32:18.303Z,19.60
2018-10-11T20:34:47.704Z,19.70
2018-10-11T20:37:20.954Z,19.70
2018-10-11T20:39:50.903Z,19.70
2018-10-11T20:42:24.049Z,19.70
2018-10-11T20:44:53.402Z,19.60
2018-10-11T20:47:25.935Z,19.50
2018-10-11T20:49:55.760Z,19.60
2018-10-11T20:52:28.601Z,19.60
2018-10-11T20:54:58.157Z,19.60
2018-10-11T20:57:30.335Z,19.60
2018-10-11T21:00:00.054Z,19.50
2018-10-11T21:02:32.400Z,19.50
2018-10-11T21:05:02.983Z,19.60
2018-10-11T21:07:40.242Z,19.50
2018-10-11T21:10:10.405Z,19.50
2018-10-11T21:12:39.751Z,19.50
2018-10-11T21:15:09.274Z,19.50
2018-10-11T21:17:41.848Z,19.40
2018-10-11T21:20:11.504Z,19.40
2018-10-11T21:22:45.502Z,19.40
2018-10-11T21:25:16.031Z,19.40
2018-10-11T21:27:49.127Z,19.40
2018-10-11T21:30:18.830Z,19.40
2018-10-11T21:32:52.239Z,19.30
2018-10-11T21:35:22.362Z,19.30
2018-10-11T21:37:53.642Z,19.40
2018-10-11T21:40:23.066Z,19.40
2018-10-11T21:42:59.977Z,19.40
2018-10-11T21:45:30.193Z,19.30
2018-10-11T21:48:00.101Z,19.30
2018-10-11T21:50:29.656Z,19.30
2018-10-11T21:53:02.559Z,19.40
2018-10-11T21:55:31.986Z,19.30
2018-10-11T21:58:08.464Z,19.50
2018-10-11T22:00:43.341Z,19.40
2018-10-11T22:03:12.650Z,19.50
2018-10-11T22:05:42.387Z,19.50
2018-10-11T22:08:12.402Z,19.60
2018-10-11T22:10:41.876Z,19.70
2018-10-11T22:13:15.013Z,19.70
2018-10-11T22:15:44.329Z,19.70
2018-10-11T22:18:21.061Z,19.60
2018-10-11T22:20:52.103Z,19.70
2018-10-11T22:23:21.822Z,19.70
2018-10-11T22:25:51.295Z,19.70
2018-10-11T22:28:22.251Z,19.70
2018-10-11T22:30:51.975Z,19.70
2018-10-11T22:33:25.108Z,19.70
2018-10-11T22:35:55.086Z,19.70
2018-10-11T22:38:27.861Z,19.60
2018-10-11T22:40:57.605Z,19.60
2018-10-11T22:43:34.394Z,19.60
2018-10-11T22:46:03.792Z,19.60
2018-10-11T22:48:33.256Z,19.60
2018-10-11T22:51:04.983Z,19.60
2018-10-11T22:53:37.649Z,19.50
2018-10-11T22:56:07.295Z,19.50
2018-10-11T22:58:43.796Z,19.50
2018-10-11T23:01:13.618Z,19.50
2018-10-11T23:03:43.154Z,19.40
2018-10-11T23:06:12.515Z,19.50
2018-10-11T23:08:45.487Z,19.50
2018-10-11T23:11:15.112Z,19.50
2018-10-11T23:13:48.209Z,19.50
2018-10-11T23:16:18.138Z,19.50
2018-10-11T23:18:51.021Z,19.40
2018-10-11T23:21:20.610Z,19.40
2018-10-11T23:23:57.304Z,19.40
2018-10-11T23:26:26.521Z,19.40
2018-10-11T23:28:56.417Z,19.40
2018-10-11T23:31:25.938Z,19.50
2018-10-11T23:34:02.770Z,19.50
2018-10-11T23:36:32.286Z,19.50
2018-10-11T23:39:02.179Z,19.40
2018-10-11T23:41:31.422Z,19.40
2018-10-11T23:44:08.581Z,19.40
2018-10-11T23:46:37.855Z,19.40
2018-10-11T23:49:08.917Z,19.40
2018-10-11T23:51:38.458Z,19.30
2018-10-11T23:54:12.153Z,19.30
2018-10-11T23:56:41.378Z,19.20
2018-10-11T23:59:17.830Z,19.20
